createdAt,value
2023-03-22T09:02:52.067Z,43.07
2023-03-22T09:09:03.757Z,43.06
2023-03-22T09:09:14.126Z,42.42
2023-03-22T09:09:24.720Z,41.99
2023-03-22T09:09:35.901Z,41.75
2023-03-22T09:09:44.516Z,41.66
2023-03-22T09:09:55.676Z,41.51
2023-03-22T09:10:04.903Z,41.78
2023-03-22T09:10:15.832Z,41.82
2023-03-22T09:10:25.408Z,41.82
2023-03-22T09:10:35.938Z,41.85
2023-03-22T09:10:44.701Z,41.86
2023-03-22T09:10:55.589Z,41.83
2023-03-22T09:11:06.634Z,41.96
2023-03-22T09:11:17.795Z,42.05
2023-03-22T09:11:25.806Z,42.10
2023-03-22T09:11:35.731Z,41.76
2023-03-22T09:11:48.821Z,41.43
2023-03-22T09:12:40.793Z,42.52
2023-03-22T09:12:47.391Z,42.41
2023-03-22T09:13:00.721Z,41.81
2023-03-22T09:13:12.725Z,42.01
2023-03-22T09:13:21.227Z,42.04
2023-03-22T09:16:07.172Z,42.37
2023-03-22T09:16:14.746Z,42.33
2023-03-22T09:16:26.779Z,42.09
2023-03-22T09:16:38.152Z,41.93
2023-03-22T09:16:49.289Z,42.09
2023-03-22T09:17:00.207Z,41.90
2023-03-22T09:17:09.642Z,41.90
2023-03-22T09:17:22.447Z,41.72
2023-03-22T09:17:33.494Z,41.66
2023-03-22T09:17:58.736Z,42.07
2023-03-22T09:18:11.361Z,41.89
2023-03-22T09:18:22.958Z,41.89
2023-03-22T09:18:35.447Z,41.63
2023-03-22T09:18:45.257Z,41.44
2023-03-22T09:18:57.246Z,41.28
2023-03-22T09:19:08.407Z,41.16
2023-03-22T09:19:19.411Z,41.22
2023-03-22T09:19:32.199Z,41.38
2023-03-22T09:19:43.799Z,41.20
2023-03-22T09:20:09.419Z,41.23
2023-03-22T09:20:12.845Z,41.53
2023-03-22T09:20:18.345Z,41.78
2023-03-22T09:20:29.449Z,41.42
2023-03-22T09:20:42.020Z,41.28
2023-03-22T09:20:53.330Z,41.29
2023-03-22T09:21:05.678Z,41.45
2023-03-22T09:21:17.004Z,41.89
2023-03-22T09:21:28.379Z,41.81
2023-03-22T09:21:40.189Z,41.73
2023-03-22T09:21:55.486Z,41.79
2023-03-22T09:22:05.981Z,41.95
2023-03-22T09:23:01.305Z,42.67
2023-03-22T09:23:10.738Z,43.10
2023-03-22T09:23:20.949Z,43.08
2023-03-22T09:23:31.238Z,43.09
2023-03-22T09:23:41.231Z,43.23
2023-03-22T09:23:50.534Z,43.25
2023-03-22T09:24:00.135Z,43.26
2023-03-22T09:24:10.297Z,43.20
2023-03-22T09:24:21.232Z,43.07
2023-03-22T09:24:28.849Z,42.93
2023-03-22T09:24:38.114Z,42.51
2023-03-22T09:24:46.846Z,42.30
2023-03-22T09:24:56.912Z,42.20
2023-03-22T09:25:12.151Z,42.10
2023-03-22T09:25:18.698Z,42.69
2023-03-22T09:25:29.739Z,42.53
2023-03-22T09:25:40.515Z,42.61
2023-03-22T09:25:51.272Z,42.60
2023-03-22T09:25:58.483Z,42.58
2023-03-22T09:26:12.234Z,42.11
2023-03-22T09:26:22.306Z,42.39
2023-03-22T09:26:32.369Z,42.47
2023-03-22T09:26:45.883Z,42.39
2023-03-22T09:26:54.230Z,42.14
2023-03-22T09:27:07.892Z,41.94
2023-03-22T09:27:17.889Z,41.94
2023-03-22T09:27:28.738Z,41.86
2023-03-22T09:27:39.727Z,41.61
2023-03-22T09:27:54.898Z,41.60
2023-03-22T09:28:06.549Z,41.81
2023-03-22T09:28:14.144Z,41.68
2023-03-22T09:28:25.766Z,41.59
2023-03-22T09:28:36.148Z,41.59
2023-03-22T09:28:47.334Z,41.64
2023-03-22T09:28:58.226Z,41.70
2023-03-22T09:29:07.871Z,41.85
2023-03-22T09:29:18.729Z,41.97
2023-03-22T09:29:26.841Z,41.91
2023-03-22T09:29:36.577Z,41.87
2023-03-22T09:29:47.127Z,41.73
2023-03-22T09:29:56.263Z,41.68
2023-03-22T09:30:09.232Z,41.57
2023-03-22T09:30:18.238Z,41.92
2023-03-22T09:30:28.901Z,42.05
2023-03-22T09:30:40.872Z,42.16
2023-03-22T09:30:52.980Z,42.03
2023-03-22T09:31:04.309Z,41.96
2023-03-22T09:31:14.813Z,41.92
2023-03-22T09:31:25.141Z,41.78
2023-03-22T09:31:36.795Z,41.65
2023-03-22T09:31:49.143Z,41.58
2023-03-22T09:32:00.606Z,41.53
2023-03-22T09:32:12.195Z,41.51
2023-03-22T09:32:24.727Z,41.47
2023-03-22T09:32:35.518Z,41.55
2023-03-22T09:32:46.339Z,41.57
2023-03-22T09:33:06.232Z,41.58
2023-03-22T09:33:22.729Z,41.68
2023-03-22T09:33:34.730Z,41.41
2023-03-22T09:33:45.233Z,41.22
2023-03-22T09:33:57.600Z,41.09
2023-03-22T09:34:11.248Z,41.14
2023-03-22T09:34:23.000Z,41.18
2023-03-22T09:34:35.033Z,41.25
2023-03-22T09:34:50.229Z,41.43
2023-03-22T09:34:58.234Z,41.27
2023-03-22T09:35:08.690Z,41.32
2023-03-22T09:35:19.631Z,41.49
2023-03-22T09:35:31.824Z,41.63
2023-03-22T09:35:43.187Z,41.64
2023-03-22T09:35:52.638Z,41.47
2023-03-22T09:36:02.870Z,41.41
2023-03-22T09:36:11.245Z,41.31
2023-03-22T09:36:23.593Z,41.12
2023-03-22T09:36:32.348Z,41.20
2023-03-22T09:36:42.234Z,41.20
2023-03-22T09:36:50.254Z,41.18
2023-03-22T09:36:59.716Z,40.80
2023-03-22T09:37:08.976Z,40.56
2023-03-22T09:37:20.231Z,40.38
2023-03-22T09:37:28.902Z,40.45
2023-03-22T09:37:40.234Z,40.42
2023-03-22T09:37:49.500Z,40.43
2023-03-22T09:38:01.258Z,40.28
2023-03-22T09:38:10.228Z,40.31
2023-03-22T09:38:18.932Z,40.22
2023-03-22T09:38:30.229Z,40.55
2023-03-22T09:38:38.895Z,40.37
2023-03-22T09:38:49.859Z,40.25
2023-03-22T09:38:59.795Z,40.28
2023-03-22T09:39:09.130Z,40.13
2023-03-22T09:39:19.758Z,40.03
2023-03-22T09:39:30.584Z,40.00
2023-03-22T09:39:43.408Z,40.31
2023-03-22T09:39:52.719Z,40.71
2023-03-22T09:40:04.598Z,40.84
2023-03-22T09:40:11.305Z,40.84
2023-03-22T09:40:22.873Z,40.74
2023-03-22T09:40:34.313Z,40.95
2023-03-22T09:40:48.259Z,40.87
2023-03-22T09:40:58.734Z,40.77
2023-03-22T09:41:07.366Z,40.80
2023-03-22T09:41:21.231Z,40.90
2023-03-22T09:41:31.946Z,40.95
2023-03-22T09:41:41.827Z,40.58
2023-03-22T09:41:51.547Z,40.41
2023-03-22T09:42:01.354Z,40.59
2023-03-22T09:42:10.851Z,40.61
2023-03-22T09:42:22.729Z,40.60
2023-03-22T09:42:32.980Z,40.88
2023-03-22T09:42:42.867Z,41.10
2023-03-22T09:42:52.649Z,41.35
2023-03-22T09:43:04.759Z,41.34
2023-03-22T09:43:18.232Z,41.34
2023-03-22T09:43:32.146Z,41.45
2023-03-22T09:43:39.732Z,41.54
2023-03-22T09:43:49.406Z,41.52
2023-03-22T09:44:00.326Z,41.46
2023-03-22T09:44:11.230Z,41.34
2023-03-22T09:44:22.239Z,41.22
2023-03-22T09:44:31.839Z,41.25
2023-03-22T09:44:43.349Z,41.42
2023-03-22T09:44:56.232Z,41.36
2023-03-22T09:45:06.753Z,41.26
2023-03-22T09:45:18.217Z,40.97
2023-03-22T09:45:29.709Z,40.96
2023-03-22T09:45:43.018Z,40.96
2023-03-22T09:45:52.413Z,41.02
2023-03-22T09:46:02.690Z,40.88
2023-03-22T09:46:12.845Z,41.23
2023-03-22T09:46:24.281Z,40.73
2023-03-22T09:46:34.522Z,40.80
2023-03-22T09:46:45.590Z,41.36
2023-03-22T09:46:57.079Z,42.07
2023-03-22T09:47:06.615Z,41.97
2023-03-22T09:47:17.297Z,41.47
2023-03-22T09:47:30.681Z,41.32
2023-03-22T09:47:44.852Z,41.55
2023-03-22T09:47:51.554Z,42.09
2023-03-22T09:48:32.625Z,41.57
2023-03-22T09:48:41.839Z,43.15
2023-03-22T09:48:53.045Z,43.28
2023-03-22T09:50:15.302Z,44.42
2023-03-22T09:50:32.526Z,44.24
2023-03-22T09:50:56.578Z,42.97
2023-03-22T09:51:40.917Z,42.46
2023-03-22T09:52:04.789Z,43.00
2023-03-22T09:52:20.487Z,41.61
2023-03-22T09:52:38.840Z,41.82
2023-03-22T09:53:03.183Z,41.73
2023-03-22T09:54:08.671Z,42.80
2023-03-22T09:54:19.158Z,43.12
2023-03-22T09:54:29.233Z,42.66
2023-03-22T09:54:39.136Z,41.91
2023-03-22T09:54:52.588Z,41.37
2023-03-22T09:54:59.589Z,41.73
2023-03-22T09:55:10.188Z,41.57
2023-03-22T09:55:21.294Z,41.14
2023-03-22T09:55:31.284Z,41.02
2023-03-22T09:55:41.110Z,41.64
2023-03-22T09:55:50.602Z,42.05
2023-03-22T09:57:51.663Z,49.21
2023-03-22T09:58:01.430Z,45.94
2023-03-22T09:58:13.625Z,44.37
2023-03-22T09:58:27.274Z,43.63
2023-03-22T09:58:41.051Z,43.28
2023-03-22T09:59:04.616Z,42.96
2023-03-22T09:59:18.336Z,42.93
2023-03-22T09:59:36.771Z,42.73
2023-03-22T09:59:48.432Z,42.61
2023-03-22T09:59:59.670Z,42.49
2023-03-22T10:00:11.911Z,42.37
2023-03-22T10:00:24.139Z,42.34
2023-03-22T10:24:40.619Z,42.37
2023-03-22T10:24:48.769Z,41.77
2023-03-22T10:25:00.271Z,41.32
2023-03-22T10:25:09.307Z,41.19
2023-03-22T10:25:19.068Z,40.95
2023-03-22T10:25:29.118Z,40.76
2023-03-22T10:25:39.376Z,40.71
2023-03-22T10:25:49.484Z,40.71
2023-03-22T10:25:58.936Z,40.70
2023-03-22T10:26:09.159Z,40.65
2023-03-22T10:26:19.114Z,40.69
2023-03-22T10:26:29.420Z,40.73
2023-03-22T10:26:39.921Z,40.84
2023-03-22T10:26:49.722Z,41.09
2023-03-22T10:26:59.267Z,41.16
2023-03-22T10:27:09.213Z,41.07
2023-03-22T10:27:19.144Z,41.09
2023-03-22T10:27:28.986Z,41.14
2023-03-22T10:27:39.294Z,41.34
2023-03-22T10:27:48.810Z,41.42
2023-03-22T10:27:59.080Z,41.36
2023-03-22T10:28:07.003Z,41.38
2023-03-22T10:28:18.480Z,41.17
2023-03-22T10:28:28.537Z,41.31
2023-03-22T10:28:37.582Z,41.14
2023-03-22T10:28:46.966Z,41.33
2023-03-22T10:28:57.286Z,41.96
2023-03-22T10:29:08.071Z,41.72
2023-03-22T10:29:17.086Z,41.58
2023-03-22T10:29:28.176Z,41.33
2023-03-22T10:29:39.033Z,41.19
2023-03-22T10:29:50.095Z,41.29
2023-03-22T10:29:58.408Z,41.20
2023-03-22T10:30:08.324Z,41.64
2023-03-22T10:30:17.324Z,41.40
2023-03-22T10:30:27.381Z,41.05
2023-03-22T10:30:39.378Z,41.01
2023-03-22T10:30:49.322Z,41.04
2023-03-22T10:30:59.453Z,44.81
2023-03-22T10:31:08.404Z,41.82
2023-03-22T10:33:20.746Z,46.60
2023-03-22T10:33:31.870Z,46.73
2023-03-22T10:33:42.546Z,47.21
2023-03-22T10:33:50.992Z,48.05
2023-03-22T10:34:01.144Z,48.68
2023-03-22T10:34:11.855Z,49.09
2023-03-22T10:34:22.027Z,48.95
2023-03-22T10:34:31.072Z,48.94
2023-03-22T10:36:02.577Z,47.90
2023-03-22T10:36:11.179Z,47.89
2023-03-22T10:36:21.006Z,47.33
2023-03-22T10:36:31.681Z,46.63
2023-03-22T10:36:42.156Z,45.86
2023-03-22T10:36:52.219Z,45.90
2023-03-22T10:37:02.781Z,45.53
2023-03-22T10:37:11.402Z,45.53
2023-03-22T10:37:22.467Z,46.87
2023-03-22T10:37:33.155Z,45.53
2023-03-22T10:37:43.605Z,45.80
2023-03-22T10:37:51.719Z,46.35
2023-03-22T10:38:01.068Z,47.33
2023-03-22T10:38:09.687Z,47.04
2023-03-22T10:38:21.191Z,44.50
2023-03-22T10:38:36.699Z,42.13
2023-03-22T10:38:45.545Z,42.19
2023-03-22T10:38:55.678Z,42.99
2023-03-22T10:39:06.620Z,39.79
2023-03-22T10:39:21.918Z,38.65
2023-03-22T10:39:39.779Z,39.24
2023-03-22T10:39:48.959Z,40.36
2023-03-22T10:41:27.130Z,46.93
2023-03-22T10:41:38.453Z,48.03
2023-03-22T10:41:47.123Z,48.58
2023-03-22T10:41:58.619Z,48.55
2023-03-22T10:42:08.414Z,48.14
2023-03-22T10:42:19.178Z,48.03
2023-03-22T10:42:26.847Z,48.11
2023-03-22T10:42:35.786Z,48.30
2023-03-22T10:42:45.772Z,48.51
2023-03-22T10:42:56.902Z,48.39
2023-03-22T10:43:06.871Z,48.84
2023-03-22T10:43:15.790Z,48.51
2023-03-22T10:43:25.671Z,47.90
2023-03-22T10:43:35.061Z,47.54
2023-03-22T10:43:45.199Z,47.70
2023-03-22T10:43:55.059Z,47.79
2023-03-22T10:44:05.987Z,48.14
2023-03-22T10:44:15.086Z,48.40
2023-03-22T10:44:24.011Z,48.47
2023-03-22T10:44:35.093Z,48.45
2023-03-22T10:44:45.270Z,48.21
2023-03-22T10:44:55.105Z,48.18
2023-03-22T10:45:04.998Z,48.26
2023-03-22T10:47:11.147Z,50.83
2023-03-22T10:47:21.883Z,47.24
2023-03-22T10:47:38.446Z,46.57
2023-03-22T10:47:51.136Z,44.08
2023-03-22T10:48:01.847Z,45.07
2023-03-22T10:48:13.936Z,52.06
2023-03-22T10:48:24.275Z,49.45
2023-03-22T10:54:29.308Z,39.43
2023-03-22T10:54:39.755Z,39.85
2023-03-22T10:54:49.722Z,39.59
2023-03-22T10:55:03.799Z,39.80
2023-03-22T10:55:09.730Z,41.31
2023-03-22T10:55:19.709Z,41.33
2023-03-22T10:55:29.716Z,41.56
2023-03-22T10:55:40.019Z,41.83
2023-03-22T10:55:51.069Z,42.03
2023-03-22T10:55:59.723Z,40.77
2023-03-22T10:56:10.648Z,39.96
2023-03-22T10:56:22.054Z,39.62
2023-03-22T10:56:33.863Z,39.35
2023-03-22T10:56:40.646Z,39.45
2023-03-22T10:56:50.070Z,39.39
2023-03-22T10:56:59.922Z,41.43
2023-03-22T10:57:09.900Z,40.34
2023-03-22T10:57:20.036Z,39.69
2023-03-22T10:57:29.890Z,38.20
2023-03-22T10:57:39.880Z,38.18
2023-03-22T10:59:20.724Z,39.07
2023-03-22T10:59:36.059Z,37.99
2023-03-22T10:59:51.940Z,37.09
2023-03-22T10:59:55.779Z,37.21
2023-03-22T11:00:06.458Z,36.53
2023-03-22T11:01:40.049Z,40.42
2023-03-22T11:01:56.170Z,39.59
2023-03-22T11:02:12.634Z,39.77
2023-03-22T11:02:24.302Z,39.93
2023-03-22T11:02:36.683Z,39.85
2023-03-22T11:02:48.562Z,39.93
2023-03-22T11:03:00.925Z,40.13
2023-03-22T11:03:37.654Z,40.28
2023-03-22T11:03:48.937Z,40.89
2023-03-22T11:04:01.201Z,40.88
2023-03-22T11:04:33.680Z,40.83
2023-03-22T11:04:47.182Z,41.13
2023-03-22T11:05:00.149Z,41.14
2023-03-22T11:05:13.864Z,41.26
2023-03-22T11:05:24.532Z,41.20
2023-03-22T11:05:38.250Z,41.17
2023-03-22T11:05:53.746Z,41.26
2023-03-22T11:06:04.960Z,41.20
2023-03-22T11:06:16.953Z,41.27
2023-03-22T11:06:28.690Z,41.48
2023-03-22T11:06:40.554Z,41.51
2023-03-22T11:06:56.274Z,41.33
2023-03-22T11:07:06.599Z,41.52
2023-03-22T11:07:23.210Z,41.36
2023-03-22T11:07:36.706Z,41.53
2023-03-22T11:07:52.880Z,41.11
2023-03-22T11:08:04.684Z,40.94
2023-03-22T11:08:18.780Z,40.71
2023-03-22T11:08:30.348Z,40.99
2023-03-22T11:08:45.758Z,40.96
2023-03-22T11:08:57.361Z,40.92
2023-03-22T11:09:19.855Z,40.51
2023-03-22T11:10:32.343Z,40.04
2023-03-22T11:10:48.982Z,39.85
2023-03-22T11:11:00.837Z,40.02
2023-03-22T11:11:13.956Z,39.90
2023-03-22T11:11:25.417Z,40.18
2023-03-22T11:11:36.018Z,40.35
2023-03-22T11:12:01.143Z,40.21
2023-03-22T11:12:11.953Z,40.11
2023-03-22T11:12:26.463Z,40.00
2023-03-22T11:12:52.455Z,39.99
2023-03-22T11:13:40.263Z,40.01
2023-03-22T11:15:03.791Z,42.15
2023-03-22T11:15:16.943Z,39.89
2023-03-22T11:15:31.997Z,39.84
2023-03-22T11:15:51.703Z,39.77
2023-03-22T11:16:06.980Z,39.17
2023-03-22T11:16:29.465Z,39.04
2023-03-22T11:16:44.221Z,39.34
2023-03-22T11:16:57.064Z,39.61
2023-03-22T11:17:13.668Z,39.70
2023-03-22T11:17:25.844Z,39.99
2023-03-22T11:17:37.870Z,39.94
2023-03-22T11:17:51.410Z,40.06
2023-03-22T11:18:04.258Z,40.01
2023-03-22T11:18:17.539Z,40.19
2023-03-22T11:18:29.255Z,40.34
2023-03-22T11:19:11.381Z,40.33
2023-03-22T11:19:20.642Z,40.35
2023-03-22T11:19:33.942Z,40.18
2023-03-22T11:19:45.284Z,40.27
2023-03-22T11:19:56.323Z,40.18
2023-03-22T11:20:08.995Z,40.18
2023-03-22T11:20:19.666Z,40.27
2023-03-22T11:20:34.229Z,40.23
2023-03-22T11:20:59.854Z,40.28
2023-03-22T11:21:14.061Z,40.34
2023-03-22T11:21:32.167Z,40.34
2023-03-22T11:21:44.945Z,40.46
2023-03-22T11:22:09.073Z,40.39
